sensor_id;sensor_type;location;lat;lon;timestamp;temperature;humidity
7117;DHT22;3600;48.568;7.870;2023-04-01T00:01:19;9.90;99.90
7117;DHT22;3600;48.568;7.870;2023-04-01T00:03:46;10.00;99.90
7117;DHT22;3600;48.568;7.870;2023-04-01T00:06:15;10.00;99.90
7117;DHT22;3600;48.568;7.870;2023-04-01T00:08:43;10.00;99.90
7117;DHT22;3600;48.568;7.870;2023-04-01T00:11:10;10.10;99.90
7117;DHT22;3600;48.568;7.870;2023-04-01T00:13:37;10.00;99.90
7117;DHT22;3600;48.568;7.870;2023-04-01T00:16:04;10.00;99.90
7117;DHT22;3600;48.568;7.870;2023-04-01T00:18:46;10.00;99.90
7117;DHT22;3600;48.568;7.870;2023-04-01T00:21:15;10.00;99.90
7117;DHT22;3600;48.568;7.870;2023-04-01T00:23:41;10.00;99.90
7117;DHT22;3600;48.568;7.870;2023-04-01T00:26:08;10.00;99.90
7117;DHT22;3600;48.568;7.870;2023-04-01T00:28:35;10.00;99.90
7117;DHT22;3600;48.568;7.870;2023-04-01T00:31:09;9.90;99.90
7117;DHT22;3600;48.568;7.870;2023-04-01T00:33:37;9.90;99.90
7117;DHT22;3600;48.568;7.870;2023-04-01T00:36:13;9.90;99.90
7117;DHT22;3600;48.568;7.870;2023-04-01T00:38:40;9.90;99.90
7117;DHT22;3600;48.568;7.870;2023-04-01T00:41:10;9.90;99.90
7117;DHT22;3600;48.568;7.870;2023-04-01T00:43:42;9.90;99.90
7117;DHT22;3600;48.568;7.870;2023-04-01T00:46:09;9.80;99.90
7117;DHT22;3600;48.568;7.870;2023-04-01T00:48:39;9.80;99.90
7117;DHT22;3600;48.568;7.870;2023-04-01T00:51:14;9.80;99.90
7117;DHT22;3600;48.568;7.870;2023-04-01T00:53:44;9.80;99.90
7117;DHT22;3600;48.568;7.870;2023-04-01T00:56:21;9.80;99.90
7117;DHT22;3600;48.568;7.870;2023-04-01T00:58:59;9.80;99.90
7117;DHT22;3600;48.568;7.870;2023-04-01T01:01:27;9.80;99.90
7117;DHT22;3600;48.568;7.870;2023-04-01T01:03:56;9.80;99.90
7117;DHT22;3600;48.568;7.870;2023-04-01T01:06:46;9.70;99.90
7117;DHT22;3600;48.568;7.870;2023-04-01T01:09:28;9.70;99.90
7117;DHT22;3600;48.568;7.870;2023-04-01T01:12:19;9.80;99.90
7117;DHT22;3600;48.568;7.870;2023-04-01T01:14:54;9.70;99.90
7117;DHT22;3600;48.568;7.870;2023-04-01T01:20:42;9.70;99.90
7117;DHT22;3600;48.568;7.870;2023-04-01T01:29:24;9.60;99.90
7117;DHT22;3600;48.568;7.870;2023-04-01T01:37:40;9.50;99.90
7117;DHT22;3600;48.568;7.870;2023-04-01T01:40:15;9.50;99.90
7117;DHT22;3600;48.568;7.870;2023-04-01T01:42:50;9.50;99.90
7117;DHT22;3600;48.568;7.870;2023-04-01T01:45:20;9.50;99.90
7117;DHT22;3600;48.568;7.870;2023-04-01T01:47:49;9.50;99.90
7117;DHT22;3600;48.568;7.870;2023-04-01T01:50:17;9.50;99.90
7117;DHT22;3600;48.568;7.870;2023-04-01T01:52:45;9.50;99.90
7117;DHT22;3600;48.568;7.870;2023-04-01T01:55:34;9.50;99.90
7117;DHT22;3600;48.568;7.870;2023-04-01T02:00:43;9.40;99.90
7117;DHT22;3600;48.568;7.870;2023-04-01T02:03:12;9.30;99.90
7117;DHT22;3600;48.568;7.870;2023-04-01T02:05:40;9.30;99.90
7117;DHT22;3600;48.568;7.870;2023-04-01T02:08:44;9.30;99.90
7117;DHT22;3600;48.568;7.870;2023-04-01T02:11:14;9.30;99.90
7117;DHT22;3600;48.568;7.870;2023-04-01T02:13:53;9.30;99.90
7117;DHT22;3600;48.568;7.870;2023-04-01T02:16:32;9.30;99.90
7117;DHT22;3600;48.568;7.870;2023-04-01T02:19:03;9.30;99.90
7117;DHT22;3600;48.568;7.870;2023-04-01T02:21:35;9.30;99.90
7117;DHT22;3600;48.568;7.870;2023-04-01T02:24:07;9.30;99.90
7117;DHT22;3600;48.568;7.870;2023-04-01T02:26:35;9.30;99.90
7117;DHT22;3600;48.568;7.870;2023-04-01T02:29:03;9.30;99.90
7117;DHT22;3600;48.568;7.870;2023-04-01T02:31:32;9.20;99.90
7117;DHT22;3600;48.568;7.870;2023-04-01T02:33:59;9.20;99.90
7117;DHT22;3600;48.568;7.870;2023-04-01T02:36:26;9.20;99.90
7117;DHT22;3600;48.568;7.870;2023-04-01T02:38:53;9.20;99.90
7117;DHT22;3600;48.568;7.870;2023-04-01T02:41:21;9.20;99.90
7117;DHT22;3600;48.568;7.870;2023-04-01T02:43:48;9.20;99.90
7117;DHT22;3600;48.568;7.870;2023-04-01T02:46:15;9.20;99.90
7117;DHT22;3600;48.568;7.870;2023-04-01T02:48:41;9.20;99.90
7117;DHT22;3600;48.568;7.870;2023-04-01T02:51:08;9.20;99.90
7117;DHT22;3600;48.568;7.870;2023-04-01T02:53:35;9.20;99.90
7117;DHT22;3600;48.568;7.870;2023-04-01T02:56:02;9.20;99.90
7117;DHT22;3600;48.568;7.870;2023-04-01T02:58:29;9.30;99.90
7117;DHT22;3600;48.568;7.870;2023-04-01T03:00:55;9.30;99.90
7117;DHT22;3600;48.568;7.870;2023-04-01T03:03:22;9.30;99.90
7117;DHT22;3600;48.568;7.870;2023-04-01T03:05:49;9.30;99.90
7117;DHT22;3600;48.568;7.870;2023-04-01T03:08:16;9.30;99.90
7117;DHT22;3600;48.568;7.870;2023-04-01T03:10:42;9.40;99.90
7117;DHT22;3600;48.568;7.870;2023-04-01T03:13:09;9.40;99.90
7117;DHT22;3600;48.568;7.870;2023-04-01T03:15:36;9.40;99.90
7117;DHT22;3600;48.568;7.870;2023-04-01T03:18:03;9.40;99.90
7117;DHT22;3600;48.568;7.870;2023-04-01T03:20:30;9.50;99.90
7117;DHT22;3600;48.568;7.870;2023-04-01T03:22:56;9.50;99.90
7117;DHT22;3600;48.568;7.870;2023-04-01T03:25:24;9.50;99.90
7117;DHT22;3600;48.568;7.870;2023-04-01T03:27:50;9.50;99.90
7117;DHT22;3600;48.568;7.870;2023-04-01T03:30:17;9.50;99.90
7117;DHT22;3600;48.568;7.870;2023-04-01T03:32:44;9.60;99.90
7117;DHT22;3600;48.568;7.870;2023-04-01T03:35:11;9.60;99.90
7117;DHT22;3600;48.568;7.870;2023-04-01T03:37:38;9.50;99.90
7117;DHT22;3600;48.568;7.870;2023-04-01T03:40:05;9.50;99.90
7117;DHT22;3600;48.568;7.870;2023-04-01T03:42:32;9.50;99.90
7117;DHT22;3600;48.568;7.870;2023-04-01T03:44:59;9.60;99.90
7117;DHT22;3600;48.568;7.870;2023-04-01T03:47:25;9.50;99.90
7117;DHT22;3600;48.568;7.870;2023-04-01T03:49:52;9.50;99.90
7117;DHT22;3600;48.568;7.870;2023-04-01T03:52:19;9.60;99.90
7117;DHT22;3600;48.568;7.870;2023-04-01T03:54:46;9.60;99.90
7117;DHT22;3600;48.568;7.870;2023-04-01T03:57:13;9.60;99.90
7117;DHT22;3600;48.568;7.870;2023-04-01T03:59:39;9.60;99.90
7117;DHT22;3600;48.568;7.870;2023-04-01T04:02:06;9.60;99.90
7117;DHT22;3600;48.568;7.870;2023-04-01T04:04:33;9.60;99.90
7117;DHT22;3600;48.568;7.870;2023-04-01T04:07:00;9.60;99.90
7117;DHT22;3600;48.568;7.870;2023-04-01T04:09:27;9.50;99.90
7117;DHT22;3600;48.568;7.870;2023-04-01T04:11:54;9.50;99.90
7117;DHT22;3600;48.568;7.870;2023-04-01T04:14:21;9.50;99.90
7117;DHT22;3600;48.568;7.870;2023-04-01T04:16:48;9.50;99.90
7117;DHT22;3600;48.568;7.870;2023-04-01T04:19:15;9.50;99.90
7117;DHT22;3600;48.568;7.870;2023-04-01T04:21:42;9.50;99.90
7117;DHT22;3600;48.568;7.870;2023-04-01T04:24:09;9.50;99.90
7117;DHT22;3600;48.568;7.870;2023-04-01T04:26:36;9.40;99.90
7117;DHT22;3600;48.568;7.870;2023-04-01T04:29:03;9.40;99.90
7117;DHT22;3600;48.568;7.870;2023-04-01T04:31:30;9.40;99.90
7117;DHT22;3600;48.568;7.870;2023-04-01T04:33:59;9.40;99.90
7117;DHT22;3600;48.568;7.870;2023-04-01T04:36:27;9.30;99.90
7117;DHT22;3600;48.568;7.870;2023-04-01T04:38:53;9.40;99.90
7117;DHT22;3600;48.568;7.870;2023-04-01T04:41:20;9.30;99.90
7117;DHT22;3600;48.568;7.870;2023-04-01T04:43:50;9.30;99.90
7117;DHT22;3600;48.568;7.870;2023-04-01T04:46:18;9.20;99.90
7117;DHT22;3600;48.568;7.870;2023-04-01T04:48:45;9.20;99.90
7117;DHT22;3600;48.568;7.870;2023-04-01T04:51:19;9.20;99.90
7117;DHT22;3600;48.568;7.870;2023-04-01T04:53:46;9.20;99.90
7117;DHT22;3600;48.568;7.870;2023-04-01T04:56:13;9.20;99.90
7117;DHT22;3600;48.568;7.870;2023-04-01T04:58:40;9.20;99.90
7117;DHT22;3600;48.568;7.870;2023-04-01T05:01:11;9.20;99.90
7117;DHT22;3600;48.568;7.870;2023-04-01T05:03:38;9.20;99.90
7117;DHT22;3600;48.568;7.870;2023-04-01T05:06:06;9.20;99.90
7117;DHT22;3600;48.568;7.870;2023-04-01T05:08:34;9.20;99.90
7117;DHT22;3600;48.568;7.870;2023-04-01T05:11:01;9.10;99.90
7117;DHT22;3600;48.568;7.870;2023-04-01T05:13:29;9.10;99.90
7117;DHT22;3600;48.568;7.870;2023-04-01T05:15:55;9.20;99.90
7117;DHT22;3600;48.568;7.870;2023-04-01T05:18:22;9.20;99.90
7117;DHT22;3600;48.568;7.870;2023-04-01T05:20:51;9.20;99.90
7117;DHT22;3600;48.568;7.870;2023-04-01T05:23:19;9.20;99.90
7117;DHT22;3600;48.568;7.870;2023-04-01T05:25:49;9.20;99.90
7117;DHT22;3600;48.568;7.870;2023-04-01T05:28:17;9.20;99.90
7117;DHT22;3600;48.568;7.870;2023-04-01T05:30:45;9.10;99.90
7117;DHT22;3600;48.568;7.870;2023-04-01T05:33:12;9.20;99.90
7117;DHT22;3600;48.568;7.870;2023-04-01T05:35:40;9.20;99.90
7117;DHT22;3600;48.568;7.870;2023-04-01T05:38:07;9.20;99.90
7117;DHT22;3600;48.568;7.870;2023-04-01T05:40:34;9.20;99.90
7117;DHT22;3600;48.568;7.870;2023-04-01T05:43:01;9.10;99.90
7117;DHT22;3600;48.568;7.870;2023-04-01T05:45:28;9.10;99.90
7117;DHT22;3600;48.568;7.870;2023-04-01T05:47:54;9.10;99.90
7117;DHT22;3600;48.568;7.870;2023-04-01T05:50:22;9.10;99.90
7117;DHT22;3600;48.568;7.870;2023-04-01T05:52:48;9.10;99.90
7117;DHT22;3600;48.568;7.870;2023-04-01T05:55:15;9.10;99.90
7117;DHT22;3600;48.568;7.870;2023-04-01T05:57:44;9.10;99.90
7117;DHT22;3600;48.568;7.870;2023-04-01T06:00:12;9.10;99.90
7117;DHT22;3600;48.568;7.870;2023-04-01T06:02:40;9.10;99.90
7117;DHT22;3600;48.568;7.870;2023-04-01T06:05:22;9.10;99.90
7117;DHT22;3600;48.568;7.870;2023-04-01T06:07:52;9.10;99.90
7117;DHT22;3600;48.568;7.870;2023-04-01T06:10:22;9.10;99.90
7117;DHT22;3600;48.568;7.870;2023-04-01T06:13:10;9.10;99.90
7117;DHT22;3600;48.568;7.870;2023-04-01T06:19:27;9.10;99.90
7117;DHT22;3600;48.568;7.870;2023-04-01T06:27:37;9.20;99.90
7117;DHT22;3600;48.568;7.870;2023-04-01T06:40:52;9.30;99.90
7117;DHT22;3600;48.568;7.870;2023-04-01T06:46:23;9.20;99.90
7117;DHT22;3600;48.568;7.870;2023-04-01T06:51:58;9.30;99.90
7117;DHT22;3600;48.568;7.870;2023-04-01T06:54:34;9.20;99.90
7117;DHT22;3600;48.568;7.870;2023-04-01T06:57:55;9.20;99.90
7117;DHT22;3600;48.568;7.870;2023-04-01T07:00:21;9.30;99.90
7117;DHT22;3600;48.568;7.870;2023-04-01T07:02:54;9.30;99.90
7117;DHT22;3600;48.568;7.870;2023-04-01T07:05:26;9.30;99.90
7117;DHT22;3600;48.568;7.870;2023-04-01T07:07:58;9.30;99.90
7117;DHT22;3600;48.568;7.870;2023-04-01T07:10:36;9.30;99.90
7117;DHT22;3600;48.568;7.870;2023-04-01T07:13:13;9.30;99.90
7117;DHT22;3600;48.568;7.870;2023-04-01T07:15:44;9.40;99.90
7117;DHT22;3600;48.568;7.870;2023-04-01T07:18:22;9.40;99.90
7117;DHT22;3600;48.568;7.870;2023-04-01T07:20:52;9.40;99.90
7117;DHT22;3600;48.568;7.870;2023-04-01T07:23:23;9.30;99.90
7117;DHT22;3600;48.568;7.870;2023-04-01T07:25:55;9.40;99.90
7117;DHT22;3600;48.568;7.870;2023-04-01T07:28:22;9.40;99.90
7117;DHT22;3600;48.568;7.870;2023-04-01T07:36:45;9.50;99.90
7117;DHT22;3600;48.568;7.870;2023-04-01T07:51:21;9.60;99.90
7117;DHT22;3600;48.568;7.870;2023-04-01T08:05:04;9.50;99.90
7117;DHT22;3600;48.568;7.870;2023-04-01T08:10:34;9.60;99.90
7117;DHT22;3600;48.568;7.870;2023-04-01T08:16:12;9.50;99.90
7117;DHT22;3600;48.568;7.870;2023-04-01T08:21:32;9.50;99.90
7117;DHT22;3600;48.568;7.870;2023-04-01T08:24:22;9.50;99.90
7117;DHT22;3600;48.568;7.870;2023-04-01T08:26:58;9.50;99.90
7117;DHT22;3600;48.568;7.870;2023-04-01T08:29:38;9.60;99.90
7117;DHT22;3600;48.568;7.870;2023-04-01T08:32:18;9.60;99.90
7117;DHT22;3600;48.568;7.870;2023-04-01T08:34:51;9.60;99.90
7117;DHT22;3600;48.568;7.870;2023-04-01T08:37:25;9.60;99.90
7117;DHT22;3600;48.568;7.870;2023-04-01T09:00:57;9.60;99.90
7117;DHT22;3600;48.568;7.870;2023-04-01T09:03:37;9.50;99.90
7117;DHT22;3600;48.568;7.870;2023-04-01T09:06:26;9.60;99.90
7117;DHT22;3600;48.568;7.870;2023-04-01T09:09:28;9.60;99.90
7117;DHT22;3600;48.568;7.870;2023-04-01T09:32:33;9.70;99.90
7117;DHT22;3600;48.568;7.870;2023-04-01T09:35:23;9.70;99.90
7117;DHT22;3600;48.568;7.870;2023-04-01T09:49:17;9.70;99.90
7117;DHT22;3600;48.568;7.870;2023-04-01T10:14:33;9.90;99.90
7117;DHT22;3600;48.568;7.870;2023-04-01T10:57:11;10.10;99.90
7117;DHT22;3600;48.568;7.870;2023-04-01T11:05:50;10.10;99.90
7117;DHT22;3600;48.568;7.870;2023-04-01T11:14:29;10.30;99.90
7117;DHT22;3600;48.568;7.870;2023-04-01T11:19:56;10.40;99.90
7117;DHT22;3600;48.568;7.870;2023-04-01T11:23:09;10.40;99.90
7117;DHT22;3600;48.568;7.870;2023-04-01T11:25:49;10.40;99.90
7117;DHT22;3600;48.568;7.870;2023-04-01T11:31:29;10.40;99.90
7117;DHT22;3600;48.568;7.870;2023-04-01T11:42:56;10.40;99.90
7117;DHT22;3600;48.568;7.870;2023-04-01T11:45:37;10.50;99.90
7117;DHT22;3600;48.568;7.870;2023-04-01T11:48:24;10.50;99.90
7117;DHT22;3600;48.568;7.870;2023-04-01T12:06:05;10.50;99.90
7117;DHT22;3600;48.568;7.870;2023-04-01T12:11:38;10.40;99.90
7117;DHT22;3600;48.568;7.870;2023-04-01T12:14:35;10.40;99.90
7117;DHT22;3600;48.568;7.870;2023-04-01T12:31:18;10.30;99.90
7117;DHT22;3600;48.568;7.870;2023-04-01T12:37:08;10.30;99.90
7117;DHT22;3600;48.568;7.870;2023-04-01T12:51:22;10.30;99.90
7117;DHT22;3600;48.568;7.870;2023-04-01T12:54:14;10.30;99.90
7117;DHT22;3600;48.568;7.870;2023-04-01T13:14:25;10.50;99.90
7117;DHT22;3600;48.568;7.870;2023-04-01T13:17:38;10.40;99.90
7117;DHT22;3600;48.568;7.870;2023-04-01T13:20:49;10.50;99.90
7117;DHT22;3600;48.568;7.870;2023-04-01T13:23:40;10.40;99.90
7117;DHT22;3600;48.568;7.870;2023-04-01T13:29:20;10.50;99.90
7117;DHT22;3600;48.568;7.870;2023-04-01T13:34:17;10.50;99.90
7117;DHT22;3600;48.568;7.870;2023-04-01T13:45:18;10.70;99.90
7117;DHT22;3600;48.568;7.870;2023-04-01T13:48:01;10.70;99.90
7117;DHT22;3600;48.568;7.870;2023-04-01T13:50:46;10.70;99.90
7117;DHT22;3600;48.568;7.870;2023-04-01T13:58:48;10.80;99.90
7117;DHT22;3600;48.568;7.870;2023-04-01T14:04:47;10.90;99.90
7117;DHT22;3600;48.568;7.870;2023-04-01T14:13:18;10.90;99.90
7117;DHT22;3600;48.568;7.870;2023-04-01T14:15:56;10.90;99.90
7117;DHT22;3600;48.568;7.870;2023-04-01T14:21:26;10.80;99.90
7117;DHT22;3600;48.568;7.870;2023-04-01T14:31:58;10.90;99.90
7117;DHT22;3600;48.568;7.870;2023-04-01T14:34:49;10.90;99.90
7117;DHT22;3600;48.568;7.870;2023-04-01T14:37:40;10.90;99.90
7117;DHT22;3600;48.568;7.870;2023-04-01T14:51:29;11.10;99.90
7117;DHT22;3600;48.568;7.870;2023-04-01T14:57:11;11.20;99.90
7117;DHT22;3600;48.568;7.870;2023-04-01T14:59:51;11.20;99.90
7117;DHT22;3600;48.568;7.870;2023-04-01T15:02:45;11.30;99.90
7117;DHT22;3600;48.568;7.870;2023-04-01T15:08:16;11.30;99.90
7117;DHT22;3600;48.568;7.870;2023-04-01T15:16:33;11.40;99.90
7117;DHT22;3600;48.568;7.870;2023-04-01T15:19:35;11.40;99.90
7117;DHT22;3600;48.568;7.870;2023-04-01T15:22:42;11.40;99.90
7117;DHT22;3600;48.568;7.870;2023-04-01T16:00:28;11.50;99.90
7117;DHT22;3600;48.568;7.870;2023-04-01T16:03:15;11.50;99.90
7117;DHT22;3600;48.568;7.870;2023-04-01T16:06:10;11.40;99.90
7117;DHT22;3600;48.568;7.870;2023-04-01T16:08:49;11.40;99.90
7117;DHT22;3600;48.568;7.870;2023-04-01T16:14:11;11.30;99.90
7117;DHT22;3600;48.568;7.870;2023-04-01T16:19:49;11.30;99.90
7117;DHT22;3600;48.568;7.870;2023-04-01T16:22:37;11.30;99.90
7117;DHT22;3600;48.568;7.870;2023-04-01T16:25:29;11.30;99.90
7117;DHT22;3600;48.568;7.870;2023-04-01T16:28:19;11.30;99.90
7117;DHT22;3600;48.568;7.870;2023-04-01T16:34:18;11.30;99.90
7117;DHT22;3600;48.568;7.870;2023-04-01T16:36:52;11.30;99.90
7117;DHT22;3600;48.568;7.870;2023-04-01T16:42:24;11.40;99.90
7117;DHT22;3600;48.568;7.870;2023-04-01T16:45:23;11.40;99.90
7117;DHT22;3600;48.568;7.870;2023-04-01T16:47:47;11.40;99.90
7117;DHT22;3600;48.568;7.870;2023-04-01T16:50:20;11.40;99.90
7117;DHT22;3600;48.568;7.870;2023-04-01T16:53:19;11.40;99.90
7117;DHT22;3600;48.568;7.870;2023-04-01T16:55:55;11.10;99.90
7117;DHT22;3600;48.568;7.870;2023-04-01T16:58:36;10.80;99.90
7117;DHT22;3600;48.568;7.870;2023-04-01T17:01:04;10.40;99.90
7117;DHT22;3600;48.568;7.870;2023-04-01T17:03:38;10.30;99.90
7117;DHT22;3600;48.568;7.870;2023-04-01T17:06:19;10.30;99.90
7117;DHT22;3600;48.568;7.870;2023-04-01T17:09:05;10.20;99.90
7117;DHT22;3600;48.568;7.870;2023-04-01T17:11:54;10.20;99.90
7117;DHT22;3600;48.568;7.870;2023-04-01T17:23:07;10.20;99.90
7117;DHT22;3600;48.568;7.870;2023-04-01T17:25:56;10.20;99.90
7117;DHT22;3600;48.568;7.870;2023-04-01T17:28:50;10.30;99.90
7117;DHT22;3600;48.568;7.870;2023-04-01T17:37:30;10.20;99.90
7117;DHT22;3600;48.568;7.870;2023-04-01T17:43:03;10.20;99.90
7117;DHT22;3600;48.568;7.870;2023-04-01T17:51:03;10.20;99.90
7117;DHT22;3600;48.568;7.870;2023-04-01T17:59:39;10.20;99.90
7117;DHT22;3600;48.568;7.870;2023-04-01T18:02:56;10.20;99.90
7117;DHT22;3600;48.568;7.870;2023-04-01T18:06:03;10.20;99.90
7117;DHT22;3600;48.568;7.870;2023-04-01T18:20:20;10.20;99.90
7117;DHT22;3600;48.568;7.870;2023-04-01T18:23:14;10.10;99.90
7117;DHT22;3600;48.568;7.870;2023-04-01T18:25:47;10.10;99.90
7117;DHT22;3600;48.568;7.870;2023-04-01T18:30:58;10.10;99.90
7117;DHT22;3600;48.568;7.870;2023-04-01T18:36:39;10.10;99.90
7117;DHT22;3600;48.568;7.870;2023-04-01T18:39:19;10.10;99.90
7117;DHT22;3600;48.568;7.870;2023-04-01T18:44:49;10.00;99.90
7117;DHT22;3600;48.568;7.870;2023-04-01T18:53:26;9.90;99.90
7117;DHT22;3600;48.568;7.870;2023-04-01T18:56:00;9.80;99.90
7117;DHT22;3600;48.568;7.870;2023-04-01T18:58:45;9.90;99.90
7117;DHT22;3600;48.568;7.870;2023-04-01T19:01:41;9.90;99.90
7117;DHT22;3600;48.568;7.870;2023-04-01T19:06:51;9.80;99.90
7117;DHT22;3600;48.568;7.870;2023-04-01T19:09:22;9.90;99.90
7117;DHT22;3600;48.568;7.870;2023-04-01T19:14:51;9.90;99.90
7117;DHT22;3600;48.568;7.870;2023-04-01T19:20:23;9.80;99.90
7117;DHT22;3600;48.568;7.870;2023-04-01T19:25:48;9.50;99.90
7117;DHT22;3600;48.568;7.870;2023-04-01T19:28:27;9.30;99.90
7117;DHT22;3600;48.568;7.870;2023-04-01T19:36:28;9.30;99.90
7117;DHT22;3600;48.568;7.870;2023-04-01T19:41:36;9.30;99.90
7117;DHT22;3600;48.568;7.870;2023-04-01T19:47:20;9.30;99.90
7117;DHT22;3600;48.568;7.870;2023-04-01T19:50:04;9.30;99.90
7117;DHT22;3600;48.568;7.870;2023-04-01T19:52:40;9.30;99.90
7117;DHT22;3600;48.568;7.870;2023-04-01T19:55:36;9.30;99.90
7117;DHT22;3600;48.568;7.870;2023-04-01T20:00:59;9.30;99.90
7117;DHT22;3600;48.568;7.870;2023-04-01T20:15:47;9.20;99.90
7117;DHT22;3600;48.568;7.870;2023-04-01T20:18:26;9.20;99.90
7117;DHT22;3600;48.568;7.870;2023-04-01T20:21:05;9.20;99.90
7117;DHT22;3600;48.568;7.870;2023-04-01T20:23:42;9.20;99.90
7117;DHT22;3600;48.568;7.870;2023-04-01T20:26:14;9.20;99.90
7117;DHT22;3600;48.568;7.870;2023-04-01T20:32:05;9.20;99.90
7117;DHT22;3600;48.568;7.870;2023-04-01T20:34:36;9.20;99.90
7117;DHT22;3600;48.568;7.870;2023-04-01T20:42:29;9.20;99.90
7117;DHT22;3600;48.568;7.870;2023-04-01T20:45:28;9.10;99.90
7117;DHT22;3600;48.568;7.870;2023-04-01T20:50:59;9.10;99.90
7117;DHT22;3600;48.568;7.870;2023-04-01T20:53:35;9.00;99.90
7117;DHT22;3600;48.568;7.870;2023-04-01T21:02:20;8.90;99.90
7117;DHT22;3600;48.568;7.870;2023-04-01T21:13:58;8.90;99.90
7117;DHT22;3600;48.568;7.870;2023-04-01T21:16:39;8.90;99.90
7117;DHT22;3600;48.568;7.870;2023-04-01T21:19:52;8.90;99.90
7117;DHT22;3600;48.568;7.870;2023-04-01T21:28:23;8.90;99.90
7117;DHT22;3600;48.568;7.870;2023-04-01T21:31:03;8.90;99.90
7117;DHT22;3600;48.568;7.870;2023-04-01T21:36:31;9.00;99.90
7117;DHT22;3600;48.568;7.870;2023-04-01T21:39:25;9.00;99.90
7117;DHT22;3600;48.568;7.870;2023-04-01T21:42:02;8.90;99.90
7117;DHT22;3600;48.568;7.870;2023-04-01T21:48:01;8.90;99.90
7117;DHT22;3600;48.568;7.870;2023-04-01T21:51:06;8.90;99.90
7117;DHT22;3600;48.568;7.870;2023-04-01T22:05:05;8.90;99.90
7117;DHT22;3600;48.568;7.870;2023-04-01T22:07:52;8.80;99.90
7117;DHT22;3600;48.568;7.870;2023-04-01T22:18:44;8.80;99.90
7117;DHT22;3600;48.568;7.870;2023-04-01T22:27:26;8.70;99.90
7117;DHT22;3600;48.568;7.870;2023-04-01T22:32:50;8.60;99.90
7117;DHT22;3600;48.568;7.870;2023-04-01T22:40:50;8.70;99.90
7117;DHT22;3600;48.568;7.870;2023-04-01T22:43:28;8.70;99.90
7117;DHT22;3600;48.568;7.870;2023-04-01T22:46:23;8.70;99.90
7117;DHT22;3600;48.568;7.870;2023-04-01T22:51:48;8.60;99.90
7117;DHT22;3600;48.568;7.870;2023-04-01T22:54:27;8.70;99.90
7117;DHT22;3600;48.568;7.870;2023-04-01T22:57:02;8.60;99.90
7117;DHT22;3600;48.568;7.870;2023-04-01T22:59:46;8.60;99.90
7117;DHT22;3600;48.568;7.870;2023-04-01T23:02:27;8.60;99.90
7117;DHT22;3600;48.568;7.870;2023-04-01T23:04:58;8.60;99.90
7117;DHT22;3600;48.568;7.870;2023-04-01T23:07:35;8.60;99.90
7117;DHT22;3600;48.568;7.870;2023-04-01T23:11:03;8.60;99.90
7117;DHT22;3600;48.568;7.870;2023-04-01T23:13:06;8.50;99.90
7117;DHT22;3600;48.568;7.870;2023-04-01T23:15:37;8.50;99.90
7117;DHT22;3600;48.568;7.870;2023-04-01T23:18:35;8.50;99.90
7117;DHT22;3600;48.568;7.870;2023-04-01T23:21:07;8.60;99.90
7117;DHT22;3600;48.568;7.870;2023-04-01T23:28:59;8.50;99.90
7117;DHT22;3600;48.568;7.870;2023-04-01T23:31:34;8.50;99.90
7117;DHT22;3600;48.568;7.870;2023-04-01T23:36:40;8.60;99.90
7117;DHT22;3600;48.568;7.870;2023-04-01T23:39:30;8.60;99.90
7117;DHT22;3600;48.568;7.870;2023-04-01T23:42:11;8.70;99.90
7117;DHT22;3600;48.568;7.870;2023-04-01T23:44:39;8.60;99.90
7117;DHT22;3600;48.568;7.870;2023-04-01T23:47:08;8.60;99.90
7117;DHT22;3600;48.568;7.870;2023-04-01T23:49:43;8.60;99.90
7117;DHT22;3600;48.568;7.870;2023-04-01T23:52:23;8.60;99.90
7117;DHT22;3600;48.568;7.870;2023-04-01T23:55:13;8.60;99.90
7117;DHT22;3600;48.568;7.870;2023-04-01T23:57:40;8.60;99.90
